^^
Saratoga-Weather Station Historical Data
Daily Summary for April 22, 2021 Units:  English    Metric   Both
Daily Weekly Monthly Yearly Custom
  High: Low: Average:
Temperature: 50.2 °F 46.8 °F 48.2 °F
Dew Point: 47.3 °F 43.2 °F 44.8 °F
Humidity: 91% 86% 88%
Wind Speed: 13mph 0mph 2.2mph
Wind Gust: 16mph - -
Wind- - SW
Pressure: 29.7 in 29.7 in -
Precipitation: 0 in    
Historical Graphs
 
 
Tabular Data for April 22, 2021
Time Temperature Dew Point Pressure Wind Wind Speed Wind Gust Humidity Rainfall Rate (Hourly) solar
00:00 50.2 °F 47.3 °F 29.7 in North 0.9 mph 2 mph 90% 0.1 in 0 W/m2
00:05 50 °F 47.1 °F 29.7 in NNW 0.9 mph 3 mph 90% 0.09 in 0 W/m2
00:10 50 °F 47.1 °F 29.7 in Calm   6 mph 90% 0.04 in 0 W/m2
00:15 50 °F 47.1 °F 29.7 in SW 0.9 mph 1 mph 90% 0.01 in 0 W/m2
00:20 49.8 °F 46.9 °F 29.7 in Calm     90% 0 in 0 W/m2
00:25 49.6 °F 46.8 °F 29.7 in Calm   3 mph 90% 0 in 0 W/m2
00:30 49.5 °F 46.9 °F 29.7 in Calm   3 mph 91% 0 in 0 W/m2
00:35 49.5 °F 46.9 °F 29.7 in Calm   2 mph 91% 0 in 0 W/m2
00:40 49.5 °F 46.9 °F 29.7 in NNE 0.9 mph 1 mph 91% 0 in 0 W/m2
00:45 49.3 °F 46.8 °F 29.7 in North 2.9 mph 3 mph 91% 0 in 0 W/m2
00:50 49.3 °F 46.8 °F 29.7 in NNE 0.9 mph 2 mph 91% 0 in 0 W/m2
00:55 49.1 °F 46.6 °F 29.7 in East 0.9 mph 6 mph 91% 0 in 0 W/m2
01:00 49.1 °F 46.6 °F 29.7 in NNW 2 mph 3 mph 91% 0 in 0 W/m2
01:05 49.1 °F 46.6 °F 29.7 in NW 0.9 mph 4 mph 91% 0 in 0 W/m2
01:10 49.3 °F 46.8 °F 29.7 in Calm   1 mph 91% 0 in 0 W/m2
01:15 49.3 °F 46.8 °F 29.7 in Calm   4 mph 91% 0 in 0 W/m2
01:20 49.3 °F 46.4 °F 29.7 in NW 2.9 mph 4 mph 90% 0 in 0 W/m2
01:25 49.3 °F 46.8 °F 29.7 in NNW 0.9 mph 2 mph 91% 0 in 0 W/m2
01:30 49.3 °F 46.8 °F 29.7 in NW 2.9 mph 7 mph 91% 0 in 0 W/m2
01:35 49.3 °F 46.8 °F 29.7 in NE 0.9 mph 3 mph 91% 0 in 0 W/m2
01:40 49.3 °F 46.8 °F 29.7 in NNW 4 mph 5 mph 91% 0 in 0 W/m2
01:45 49.3 °F 46.8 °F 29.7 in East 2.9 mph 8 mph 91% 0 in 0 W/m2
01:50 49.3 °F 46.4 °F 29.7 in Calm   9 mph 90% 0 in 0 W/m2
01:55 49.3 °F 46.2 °F 29.7 in North 2 mph 3 mph 89% 0 in 0 W/m2
02:00 49.3 °F 46.2 °F 29.7 in Calm   11 mph 89% 0 in 0 W/m2
02:05 49.3 °F 46.2 °F 29.7 in East 0.9 mph 4 mph 89% 0 in 0 W/m2
02:10 49.1 °F 46 °F 29.7 in South 0.9 mph 11 mph 89% 0 in 0 W/m2
02:15 48.9 °F 45.5 °F 29.7 in West 6 mph 8 mph 88% 0 in 0 W/m2
02:20 48.9 °F 45.1 °F 29.7 in WNW 8.1 mph 8 mph 87% 0 in 0 W/m2
02:25 48.9 °F 45.1 °F 29.7 in North 2 mph 5 mph 87% 0 in 0 W/m2
02:30 48.7 °F 45 °F 29.7 in North 2.9 mph 9 mph 87% 0 in 0 W/m2
02:35 48.6 °F 44.8 °F 29.7 in North 2.9 mph 4 mph 87% 0 in 0 W/m2
02:40 48.4 °F 44.8 °F 29.7 in ENE 2 mph 6 mph 87% 0 in 0 W/m2
02:45 48.4 °F 44.8 °F 29.7 in West 2.9 mph 4 mph 87% 0 in 0 W/m2
02:50 48.2 °F 44.6 °F 29.7 in NW 4 mph 5 mph 87% 0 in 0 W/m2
02:55 48 °F 44.4 °F 29.7 in SSW 2 mph 3 mph 87% 0 in 0 W/m2
03:00 47.8 °F 44.2 °F 29.7 in WNW 2 mph 3 mph 87% 0 in 0 W/m2
03:05 47.8 °F 44.2 °F 29.7 in NNW 0.9 mph 2 mph 87% 0 in 0 W/m2
03:10 47.8 °F 44.2 °F 29.7 in NW 13 mph 13 mph 87% 0 in 0 W/m2
03:15 47.8 °F 43.9 °F 29.7 in SW 2 mph 6 mph 86% 0 in 0 W/m2
03:20 47.7 °F 43.7 °F 29.7 in NNW 0.9 mph 7 mph 86% 0 in 0 W/m2
03:25 47.5 °F 43.5 °F 29.7 in North 0.9 mph 4 mph 86% 0 in 0 W/m2
03:30 47.5 °F 43.5 °F 29.7 in NW 0.9 mph 4 mph 86% 0 in 0 W/m2
03:35 47.3 °F 43.3 °F 29.7 in NNE 0.9 mph 9 mph 86% 0 in 0 W/m2
03:40 47.3 °F 43.7 °F 29.7 in NE 2.9 mph 9 mph 87% 0 in 0 W/m2
03:45 47.1 °F 43.5 °F 29.7 in Calm   6 mph 87% 0 in 0 W/m2
03:50 47.1 °F 43.5 °F 29.7 in NNE 0.9 mph 3 mph 87% 0 in 0 W/m2
03:55 47.3 °F 43.3 °F 29.7 in NNE 0.9 mph 3 mph 86% 0 in 0 W/m2
04:01 47.1 °F 43.5 °F 29.7 in NW 2 mph 3 mph 87% 0 in 0 W/m2
04:06 47.1 °F 43.5 °F 29.7 in Calm   6 mph 87% 0 in 0 W/m2
04:11 47.1 °F 43.5 °F 29.7 in NE 0.9 mph 2 mph 87% 0 in 0 W/m2
04:16 47.1 °F 43.5 °F 29.7 in NW 2.9 mph 6 mph 87% 0 in 0 W/m2
04:21 47.1 °F 43.5 °F 29.7 in NNW 4 mph 4 mph 87% 0 in 0 W/m2
04:26 47.1 °F 43.5 °F 29.7 in West 6.9 mph 7 mph 87% 0 in 0 W/m2
04:31 47.1 °F 43.5 °F 29.7 in WSW 2 mph 3 mph 87% 0 in 0 W/m2
04:36 47.1 °F 43.5 °F 29.7 in NNW 0.9 mph 6 mph 87% 0 in 0 W/m2
04:41 47.1 °F 43.5 °F 29.7 in NW 0.9 mph 4 mph 87% 0 in 0 W/m2
04:46 47.1 °F 43.5 °F 29.7 in North 2.9 mph 5 mph 87% 0 in 0 W/m2
04:51 47.1 °F 43.5 °F 29.7 in NNW 0.9 mph 3 mph 87% 0 in 0 W/m2
04:56 46.9 °F 43.3 °F 29.7 in Calm   6 mph 87% 0 in 0 W/m2
05:01 46.9 °F 43.3 °F 29.7 in East 2 mph 4 mph 87% 0 in 0 W/m2
05:06 46.8 °F 43.3 °F 29.7 in North 0.9 mph 4 mph 88% 0 in 0 W/m2
05:11 46.8 °F 43.3 °F 29.7 in NNW 2 mph 4 mph 88% 0 in 0 W/m2
05:16 46.8 °F 43.2 °F 29.7 in NW 8.9 mph 9 mph 87% 0 in 0 W/m2
05:21 46.9 °F 43.3 °F 29.7 in NNW 4 mph 4 mph 87% 0 in 0 W/m2
05:26 46.9 °F 43.3 °F 29.7 in WSW 2.9 mph 8 mph 87% 0 in 0 W/m2
05:31 46.9 °F 43.3 °F 29.7 in SW 0.9 mph 3 mph 87% 0 in 0 W/m2
05:36 46.9 °F 43.3 °F 29.7 in NE 2.9 mph 5 mph 87% 0 in 0 W/m2
05:41 46.9 °F 43.3 °F 29.7 in NNW 0.9 mph 7 mph 87% 0 in 0 W/m2
05:46 47.1 °F 43.5 °F 29.7 in WNW 2 mph 4 mph 87% 0 in 0 W/m2
05:51 47.1 °F 43.2 °F 29.7 in West 2.9 mph 7 mph 86% 0 in 0 W/m2
05:56 47.5 °F 43.5 °F 29.7 in NE 2 mph 5 mph 86% 0 in 5 W/m2
06:01 47.5 °F 43.5 °F 29.7 in NW 2 mph 7 mph 86% 0 in 9 W/m2
06:06 47.5 °F 43.5 °F 29.7 in NW 2.9 mph 4 mph 86% 0 in 12 W/m2
06:11 47.7 °F 43.7 °F 29.7 in NE 4 mph 4 mph 86% 0 in 7 W/m2
06:16 47.7 °F 43.7 °F 29.7 in NNW 2 mph 8 mph 86% 0 in 7 W/m2
06:21 47.8 °F 43.9 °F 29.7 in NNE 2 mph 5 mph 86% 0 in 5 W/m2
06:26 47.8 °F 43.9 °F 29.7 in NW 2 mph 3 mph 86% 0 in 7 W/m2
06:31 47.8 °F 43.9 °F 29.7 in SW 6.9 mph 7 mph 86% 0 in 12 W/m2
06:36 47.8 °F 43.9 °F 29.7 in NNW 4 mph 9 mph 86% 0 in 14 W/m2
06:41 47.8 °F 43.9 °F 29.7 in Calm   3 mph 86% 0 in 14 W/m2
06:46 47.8 °F 43.9 °F 29.7 in NNW 2 mph 4 mph 86% 0 in 18 W/m2
06:51 48 °F 44.1 °F 29.7 in WSW 4 mph 10 mph 86% 0 in 23 W/m2
06:56 48 °F 44.1 °F 29.7 in NW 2 mph 4 mph 86% 0 in 30 W/m2
07:01 48 °F 44.1 °F 29.7 in WNW 4 mph 4 mph 86% 0 in 35 W/m2
07:06 48 °F 44.1 °F 29.7 in NNE 2 mph 5 mph 86% 0 in 40 W/m2
07:11 48 °F 44.1 °F 29.7 in ESE 2 mph 8 mph 86% 0 in 42 W/m2
07:16 48 °F 44.4 °F 29.7 in ENE 2.9 mph 6 mph 87% 0 in 44 W/m2
07:21 47.8 °F 44.2 °F 29.7 in NW 2 mph 16 mph 87% 0 in 63 W/m2
07:26 48 °F 44.4 °F 29.7 in NNW 4 mph 6 mph 87% 0 in 83 W/m2
07:31 48 °F 44.4 °F 29.7 in NNE 2 mph 9 mph 87% 0 in 111 W/m2
Juneau County Weather
Compliments of Weather Underground - 2 mb